Charter Quote
Worldwide +1-877-727-2538 Call
Select Language Lang
SAFETY RELIABILITY EXPERIENCE

Private Jet Charter Services - Hailang (ZYMD)

Paramount Business Jets offers private jet charter flights and luxury airliner charters to and from Hailang.

AIRPORT INFORMATION
ICAOZYMD
LOCATIONMudanjiang, China
FACILITY TYPEAIRPORT

At Paramount Business Jets you can hire chartered private jets to and from Hailang with as little as 4 hours of notice. All flights booked via Paramount Business Jets are operated by certified direct air carriers that meet and exceed the FAA part 135 and 121 protocol or a foreign equivalent safety authority. Furthermore, Paramount Business Jets subscribes to ARGUS for their third party safety checks of operators, aircraft, and crews prior each and every flight to and from Hailang and worldwide.

  • Quote a trip using Hailang or call us 24/7 - 365 days a year at +1-877-727-2538.
Questions? Call +1-877-727-2538

METAR Weather Data at Hailang, ZYMD

STATIONZYMD
OBSERVEDThu Aug 3, 04:00 UTC
NOWMon Jul 22, 09:43 UTC
AGE17237:43 hr ago
WINDSSW at 7 mph
VISIBILITY16 miles
CLOUDSovercast
TEMP75°F (24°C)
DEWPT70°F (21°C)
HUMIDITY83%
BAROMETER1005 hPa (29.68 in Hg)
METARZYMD 030400Z 21003MPS 9999 OVC030 24/21 Q1005 NOSIG

Call us on +1-877-727-2538 (24 Hours) to Hire a Private Jet or Get a Quick Quote.

Find Airports Near any Location

Processing
...